Lower Mifflin, Pennsylvania
Current Conditions -  °F | °C
As of 4:56 PM on Wednesday 28 Jan 2015 (Local Time) from KCXY Reporting Station
Clear Clear  
Wind Chill: 21°   Ceiling: Unl
Heat Index: 31°   Visibility: 10mi
Dew Point:   Wind: 13mph
Humidity: 33%   Direction: 280°W
Pressure: 30.23"   Gusts: NA
Location:  40.183°N, 77.4166°W
Report Text: KCXY 282156Z 28011KT 10SM CLR M01/M15 A3023 RMK AO2 SLP242 T10061150
Loading
Personal Weather Stations






























Interactive Weather Map New forecast layout! Learn more

10-Day Weather Forecast

Advertisements
Track Severe Weather on mobile